sensor_id;sensor_type;location;lat;lon;timestamp;pressure;altitude;pressure_sealevel;temperature;humidity
51067;BME280;37112;45.892;-123.962;2023-02-26T00:00:28;100763.55;;;6.39;62.87
51067;BME280;37112;45.892;-123.962;2023-02-26T00:03:02;100759.69;;;6.42;63.13
51067;BME280;37112;45.892;-123.962;2023-02-26T00:05:16;100760.38;;;6.47;63.11
51067;BME280;37112;45.892;-123.962;2023-02-26T00:07:30;100764.94;;;6.51;62.91
51067;BME280;37112;45.892;-123.962;2023-02-26T00:09:43;100773.27;;;6.53;63.10
51067;BME280;37112;45.892;-123.962;2023-02-26T00:12:01;100772.04;;;6.57;62.98
51067;BME280;37112;45.892;-123.962;2023-02-26T00:14:15;100769.86;;;6.61;62.96
51067;BME280;37112;45.892;-123.962;2023-02-26T00:16:32;100766.23;;;6.64;62.41
51067;BME280;37112;45.892;-123.962;2023-02-26T00:18:48;100768.73;;;6.59;61.34
51067;BME280;37112;45.892;-123.962;2023-02-26T00:21:02;100771.08;;;6.55;61.65
51067;BME280;37112;45.892;-123.962;2023-02-26T00:23:17;100766.94;;;6.56;61.89
51067;BME280;37112;45.892;-123.962;2023-02-26T00:25:31;100759.46;;;6.58;61.70
51067;BME280;37112;45.892;-123.962;2023-02-26T00:27:47;100753.55;;;6.59;61.52
51067;BME280;37112;45.892;-123.962;2023-02-26T00:30:01;100758.80;;;6.60;61.19
51067;BME280;37112;45.892;-123.962;2023-02-26T00:32:16;100760.90;;;6.57;59.95
51067;BME280;37112;45.892;-123.962;2023-02-26T00:34:30;100755.48;;;6.53;60.70
51067;BME280;37112;45.892;-123.962;2023-02-26T00:36:49;100747.40;;;6.52;60.62
51067;BME280;37112;45.892;-123.962;2023-02-26T00:39:08;100738.92;;;6.52;60.77
51067;BME280;37112;45.892;-123.962;2023-02-26T00:41:24;100731.35;;;6.52;61.15
51067;BME280;37112;45.892;-123.962;2023-02-26T00:43:42;100724.92;;;6.50;60.85
51067;BME280;37112;45.892;-123.962;2023-02-26T00:46:00;100716.05;;;6.48;60.89
51067;BME280;37112;45.892;-123.962;2023-02-26T00:48:35;100710.91;;;6.44;60.79
51067;BME280;37112;45.892;-123.962;2023-02-26T00:50:55;100707.41;;;6.40;60.84
51067;BME280;37112;45.892;-123.962;2023-02-26T00:53:19;100700.92;;;6.36;61.04
51067;BME280;37112;45.892;-123.962;2023-02-26T00:55:34;100698.75;;;6.33;61.46
51067;BME280;37112;45.892;-123.962;2023-02-26T00:57:47;100700.79;;;6.32;61.49
51067;BME280;37112;45.892;-123.962;2023-02-26T01:00:02;100692.65;;;6.29;61.28
51067;BME280;37112;45.892;-123.962;2023-02-26T01:02:17;100689.10;;;6.22;60.91
51067;BME280;37112;45.892;-123.962;2023-02-26T01:04:31;100684.73;;;6.14;60.93
51067;BME280;37112;45.892;-123.962;2023-02-26T01:06:48;100678.61;;;6.06;60.90
51067;BME280;37112;45.892;-123.962;2023-02-26T01:09:07;100672.52;;;5.98;61.04
51067;BME280;37112;45.892;-123.962;2023-02-26T01:11:23;100670.02;;;5.87;60.79
51067;BME280;37112;45.892;-123.962;2023-02-26T01:13:37;100666.07;;;5.77;61.16
51067;BME280;37112;45.892;-123.962;2023-02-26T01:15:54;100661.65;;;5.70;61.22
51067;BME280;37112;45.892;-123.962;2023-02-26T01:18:15;100656.98;;;5.61;61.35
51067;BME280;37112;45.892;-123.962;2023-02-26T01:20:33;100652.52;;;5.55;61.70
51067;BME280;37112;45.892;-123.962;2023-02-26T01:22:53;100657.02;;;5.49;61.96
51067;BME280;37112;45.892;-123.962;2023-02-26T01:25:12;100647.77;;;5.44;62.15
51067;BME280;37112;45.892;-123.962;2023-02-26T01:27:26;100645.79;;;5.42;62.35
51067;BME280;37112;45.892;-123.962;2023-02-26T01:29:40;100644.01;;;5.38;62.53
51067;BME280;37112;45.892;-123.962;2023-02-26T01:31:56;100647.45;;;5.36;62.60
51067;BME280;37112;45.892;-123.962;2023-02-26T01:34:17;100644.60;;;5.33;62.61
51067;BME280;37112;45.892;-123.962;2023-02-26T01:36:35;100639.42;;;5.31;62.63
51067;BME280;37112;45.892;-123.962;2023-02-26T01:38:56;100627.92;;;5.28;62.81
51067;BME280;37112;45.892;-123.962;2023-02-26T01:41:25;100620.86;;;5.25;62.74
51067;BME280;37112;45.892;-123.962;2023-02-26T01:43:46;100616.89;;;5.20;62.52
51067;BME280;37112;45.892;-123.962;2023-02-26T01:46:07;100607.45;;;5.14;62.54
51067;BME280;37112;45.892;-123.962;2023-02-26T01:48:36;100593.06;;;5.10;62.70
51067;BME280;37112;45.892;-123.962;2023-02-26T01:50:50;100587.66;;;5.05;62.82
51067;BME280;37112;45.892;-123.962;2023-02-26T01:53:26;100588.77;;;5.00;62.75
51067;BME280;37112;45.892;-123.962;2023-02-26T01:55:39;100589.84;;;4.95;62.74
51067;BME280;37112;45.892;-123.962;2023-02-26T01:57:57;100585.63;;;4.92;62.82
51067;BME280;37112;45.892;-123.962;2023-02-26T02:00:17;100586.14;;;4.88;62.92
51067;BME280;37112;45.892;-123.962;2023-02-26T02:02:31;100587.15;;;4.85;63.03
51067;BME280;37112;45.892;-123.962;2023-02-26T02:04:45;100587.83;;;4.82;62.91
51067;BME280;37112;45.892;-123.962;2023-02-26T02:07:02;100583.78;;;4.78;63.00
51067;BME280;37112;45.892;-123.962;2023-02-26T02:09:16;100576.70;;;4.76;62.89
51067;BME280;37112;45.892;-123.962;2023-02-26T02:11:29;100573.23;;;4.74;62.93
51067;BME280;37112;45.892;-123.962;2023-02-26T02:13:57;100566.96;;;4.73;62.96
51067;BME280;37112;45.892;-123.962;2023-02-26T02:16:19;100564.42;;;4.71;63.02
51067;BME280;37112;45.892;-123.962;2023-02-26T02:18:42;100557.84;;;4.69;62.60
51067;BME280;37112;45.892;-123.962;2023-02-26T02:23:38;100552.63;;;4.64;62.79
51067;BME280;37112;45.892;-123.962;2023-02-26T02:29:02;100547.53;;;4.59;62.85
51067;BME280;37112;45.892;-123.962;2023-02-26T02:31:25;100546.93;;;4.57;62.80
51067;BME280;37112;45.892;-123.962;2023-02-26T02:33:46;100553.31;;;4.56;62.72
51067;BME280;37112;45.892;-123.962;2023-02-26T02:36:04;100545.85;;;4.54;62.94
51067;BME280;37112;45.892;-123.962;2023-02-26T02:38:28;100538.41;;;4.51;62.92
51067;BME280;37112;45.892;-123.962;2023-02-26T02:40:45;100538.05;;;4.47;62.98
51067;BME280;37112;45.892;-123.962;2023-02-26T02:43:02;100532.87;;;4.41;63.01
51067;BME280;37112;45.892;-123.962;2023-02-26T02:45:21;100534.36;;;4.36;63.18
51067;BME280;37112;45.892;-123.962;2023-02-26T02:47:38;100531.44;;;4.31;63.13
51067;BME280;37112;45.892;-123.962;2023-02-26T02:49:56;100527.84;;;4.25;63.15
51067;BME280;37112;45.892;-123.962;2023-02-26T02:52:20;100529.64;;;4.19;63.30
51067;BME280;37112;45.892;-123.962;2023-02-26T02:54:35;100527.42;;;4.14;63.47
51067;BME280;37112;45.892;-123.962;2023-02-26T02:56:52;100525.48;;;4.10;63.47
51067;BME280;37112;45.892;-123.962;2023-02-26T02:59:15;100527.05;;;4.07;63.45
51067;BME280;37112;45.892;-123.962;2023-02-26T03:01:31;100520.85;;;4.03;63.56
51067;BME280;37112;45.892;-123.962;2023-02-26T03:03:54;100512.12;;;4.02;63.61
51067;BME280;37112;45.892;-123.962;2023-02-26T03:06:09;100508.84;;;4.01;63.80
51067;BME280;37112;45.892;-123.962;2023-02-26T03:08:25;100505.21;;;4.00;63.85
51067;BME280;37112;45.892;-123.962;2023-02-26T03:10:39;100504.72;;;3.99;63.85
51067;BME280;37112;45.892;-123.962;2023-02-26T03:12:53;100505.76;;;3.95;63.77
51067;BME280;37112;45.892;-123.962;2023-02-26T03:15:09;100500.42;;;3.93;63.95
51067;BME280;37112;45.892;-123.962;2023-02-26T03:17:30;100495.95;;;3.90;64.09
51067;BME280;37112;45.892;-123.962;2023-02-26T03:20:02;100484.18;;;3.86;64.02
51067;BME280;37112;45.892;-123.962;2023-02-26T03:22:25;100483.81;;;3.83;64.13
51067;BME280;37112;45.892;-123.962;2023-02-26T03:24:49;100473.20;;;3.80;64.34
51067;BME280;37112;45.892;-123.962;2023-02-26T03:27:09;100461.11;;;3.79;64.55
51067;BME280;37112;45.892;-123.962;2023-02-26T03:29:32;100449.56;;;3.79;64.69
51067;BME280;37112;45.892;-123.962;2023-02-26T03:31:51;100439.89;;;3.79;64.93
51067;BME280;37112;45.892;-123.962;2023-02-26T03:34:12;100427.77;;;3.79;64.96
51067;BME280;37112;45.892;-123.962;2023-02-26T03:36:28;100418.64;;;3.79;65.06
51067;BME280;37112;45.892;-123.962;2023-02-26T03:39:02;100408.25;;;3.79;65.22
51067;BME280;37112;45.892;-123.962;2023-02-26T03:41:21;100392.58;;;3.81;65.15
51067;BME280;37112;45.892;-123.962;2023-02-26T03:43:41;100386.59;;;3.81;65.25
51067;BME280;37112;45.892;-123.962;2023-02-26T03:46:04;100376.02;;;3.82;65.28
51067;BME280;37112;45.892;-123.962;2023-02-26T03:48:22;100367.30;;;3.84;65.40
51067;BME280;37112;45.892;-123.962;2023-02-26T03:50:41;100356.28;;;3.87;65.37
51067;BME280;37112;45.892;-123.962;2023-02-26T03:53:15;100351.88;;;3.92;65.46
51067;BME280;37112;45.892;-123.962;2023-02-26T03:55:37;100346.35;;;3.97;65.71
51067;BME280;37112;45.892;-123.962;2023-02-26T03:58:18;100337.95;;;4.04;65.78
51067;BME280;37112;45.892;-123.962;2023-02-26T04:00:45;100329.91;;;4.10;65.92
51067;BME280;37112;45.892;-123.962;2023-02-26T04:03:02;100325.42;;;4.16;65.97
51067;BME280;37112;45.892;-123.962;2023-02-26T04:05:22;100316.52;;;4.22;66.13
51067;BME280;37112;45.892;-123.962;2023-02-26T04:07:36;100311.89;;;4.27;66.26
51067;BME280;37112;45.892;-123.962;2023-02-26T04:09:50;100304.12;;;4.32;66.29
51067;BME280;37112;45.892;-123.962;2023-02-26T04:12:06;100299.56;;;4.35;66.49
51067;BME280;37112;45.892;-123.962;2023-02-26T04:14:23;100305.37;;;4.38;66.78
51067;BME280;37112;45.892;-123.962;2023-02-26T04:16:36;100310.27;;;4.42;66.89
51067;BME280;37112;45.892;-123.962;2023-02-26T04:18:50;100315.30;;;4.47;66.83
51067;BME280;37112;45.892;-123.962;2023-02-26T04:21:04;100322.92;;;4.50;66.89
51067;BME280;37112;45.892;-123.962;2023-02-26T04:23:18;100319.14;;;4.52;66.90
51067;BME280;37112;45.892;-123.962;2023-02-26T04:25:31;100314.46;;;4.54;67.28
51067;BME280;37112;45.892;-123.962;2023-02-26T04:27:45;100323.92;;;4.58;67.71
51067;BME280;37112;45.892;-123.962;2023-02-26T04:29:59;100320.17;;;4.63;68.04
51067;BME280;37112;45.892;-123.962;2023-02-26T04:32:13;100318.88;;;4.68;68.15
51067;BME280;37112;45.892;-123.962;2023-02-26T04:34:28;100318.11;;;4.72;68.17
51067;BME280;37112;45.892;-123.962;2023-02-26T04:36:41;100318.10;;;4.77;68.26
51067;BME280;37112;45.892;-123.962;2023-02-26T04:38:54;100317.15;;;4.81;68.32
51067;BME280;37112;45.892;-123.962;2023-02-26T04:41:08;100325.13;;;4.84;68.19
51067;BME280;37112;45.892;-123.962;2023-02-26T04:43:23;100324.82;;;4.86;68.34
51067;BME280;37112;45.892;-123.962;2023-02-26T04:45:51;100323.36;;;4.87;68.53
51067;BME280;37112;45.892;-123.962;2023-02-26T04:48:05;100316.86;;;4.87;68.55
51067;BME280;37112;45.892;-123.962;2023-02-26T04:50:18;100314.73;;;4.87;68.67
51067;BME280;37112;45.892;-123.962;2023-02-26T04:52:33;100312.16;;;4.86;68.83
51067;BME280;37112;45.892;-123.962;2023-02-26T04:54:47;100306.42;;;4.85;68.84
51067;BME280;37112;45.892;-123.962;2023-02-26T04:57:00;100297.52;;;4.84;68.87
51067;BME280;37112;45.892;-123.962;2023-02-26T04:59:14;100295.94;;;4.84;69.03
51067;BME280;37112;45.892;-123.962;2023-02-26T05:01:27;100295.77;;;4.84;69.44
51067;BME280;37112;45.892;-123.962;2023-02-26T05:03:41;100295.75;;;4.84;69.43
51067;BME280;37112;45.892;-123.962;2023-02-26T05:05:55;100287.27;;;4.84;69.37
51067;BME280;37112;45.892;-123.962;2023-02-26T05:08:09;100281.59;;;4.85;69.98
51067;BME280;37112;45.892;-123.962;2023-02-26T05:10:23;100274.74;;;4.85;70.10
51067;BME280;37112;45.892;-123.962;2023-02-26T05:12:37;100272.29;;;4.85;70.13
51067;BME280;37112;45.892;-123.962;2023-02-26T05:14:50;100265.46;;;4.84;70.62
51067;BME280;37112;45.892;-123.962;2023-02-26T05:17:04;100261.85;;;4.83;70.41
51067;BME280;37112;45.892;-123.962;2023-02-26T05:19:18;100263.27;;;4.82;70.81
51067;BME280;37112;45.892;-123.962;2023-02-26T05:21:32;100261.45;;;4.80;71.28
51067;BME280;37112;45.892;-123.962;2023-02-26T05:23:45;100267.22;;;4.78;70.83
51067;BME280;37112;45.892;-123.962;2023-02-26T05:25:59;100269.80;;;4.75;71.05
51067;BME280;37112;45.892;-123.962;2023-02-26T05:28:13;100268.35;;;4.72;71.52
51067;BME280;37112;45.892;-123.962;2023-02-26T05:30:27;100266.34;;;4.70;71.87
51067;BME280;37112;45.892;-123.962;2023-02-26T05:32:41;100272.25;;;4.68;72.08
51067;BME280;37112;45.892;-123.962;2023-02-26T05:34:55;100273.19;;;4.67;71.81
51067;BME280;37112;45.892;-123.962;2023-02-26T05:37:08;100266.33;;;4.67;72.20
51067;BME280;37112;45.892;-123.962;2023-02-26T05:39:22;100265.16;;;4.65;72.48
51067;BME280;37112;45.892;-123.962;2023-02-26T05:41:35;100268.95;;;4.64;72.97
51067;BME280;37112;45.892;-123.962;2023-02-26T05:43:49;100268.84;;;4.63;72.71
51067;BME280;37112;45.892;-123.962;2023-02-26T05:46:02;100266.64;;;4.61;73.03
51067;BME280;37112;45.892;-123.962;2023-02-26T05:48:16;100266.39;;;4.59;72.96
51067;BME280;37112;45.892;-123.962;2023-02-26T05:50:30;100266.98;;;4.57;73.75
51067;BME280;37112;45.892;-123.962;2023-02-26T05:52:44;100268.86;;;4.55;73.89
51067;BME280;37112;45.892;-123.962;2023-02-26T05:54:57;100269.75;;;4.51;75.34
51067;BME280;37112;45.892;-123.962;2023-02-26T05:57:11;100265.52;;;4.48;75.36
51067;BME280;37112;45.892;-123.962;2023-02-26T05:59:24;100275.15;;;4.45;74.91
51067;BME280;37112;45.892;-123.962;2023-02-26T06:01:38;100265.79;;;4.42;75.08
51067;BME280;37112;45.892;-123.962;2023-02-26T06:03:52;100257.96;;;4.41;74.87
51067;BME280;37112;45.892;-123.962;2023-02-26T06:06:06;100255.78;;;4.39;75.36
51067;BME280;37112;45.892;-123.962;2023-02-26T06:08:19;100254.59;;;4.38;75.02
51067;BME280;37112;45.892;-123.962;2023-02-26T06:10:33;100245.53;;;4.36;75.23
51067;BME280;37112;45.892;-123.962;2023-02-26T06:12:47;100241.80;;;4.34;75.81
51067;BME280;37112;45.892;-123.962;2023-02-26T06:15:00;100235.44;;;4.31;76.02
51067;BME280;37112;45.892;-123.962;2023-02-26T06:17:13;100227.69;;;4.28;75.99
51067;BME280;37112;45.892;-123.962;2023-02-26T06:19:27;100223.88;;;4.26;76.03
51067;BME280;37112;45.892;-123.962;2023-02-26T06:21:41;100222.25;;;4.24;76.51
51067;BME280;37112;45.892;-123.962;2023-02-26T06:23:54;100228.01;;;4.22;76.99
51067;BME280;37112;45.892;-123.962;2023-02-26T06:26:07;100221.20;;;4.20;77.77
51067;BME280;37112;45.892;-123.962;2023-02-26T06:28:21;100214.94;;;4.18;77.73
51067;BME280;37112;45.892;-123.962;2023-02-26T06:30:35;100207.31;;;4.16;77.48
51067;BME280;37112;45.892;-123.962;2023-02-26T06:32:49;100202.70;;;4.14;78.25
51067;BME280;37112;45.892;-123.962;2023-02-26T06:35:03;100198.91;;;4.12;78.45
51067;BME280;37112;45.892;-123.962;2023-02-26T06:37:16;100194.40;;;4.11;78.64
51067;BME280;37112;45.892;-123.962;2023-02-26T06:39:29;100196.06;;;4.10;78.29
51067;BME280;37112;45.892;-123.962;2023-02-26T06:41:43;100190.18;;;4.08;78.99
51067;BME280;37112;45.892;-123.962;2023-02-26T06:43:56;100182.83;;;4.07;78.98
51067;BME280;37112;45.892;-123.962;2023-02-26T06:46:10;100177.42;;;4.07;78.79
51067;BME280;37112;45.892;-123.962;2023-02-26T06:48:23;100179.36;;;4.06;78.92
51067;BME280;37112;45.892;-123.962;2023-02-26T06:50:36;100174.30;;;4.06;79.42
51067;BME280;37112;45.892;-123.962;2023-02-26T06:52:50;100170.28;;;4.05;79.59
51067;BME280;37112;45.892;-123.962;2023-02-26T06:55:04;100173.43;;;4.06;79.86
51067;BME280;37112;45.892;-123.962;2023-02-26T06:57:18;100160.27;;;4.05;81.09
51067;BME280;37112;45.892;-123.962;2023-02-26T06:59:32;100160.52;;;4.04;81.92
51067;BME280;37112;45.892;-123.962;2023-02-26T07:01:45;100159.45;;;4.04;81.52
51067;BME280;37112;45.892;-123.962;2023-02-26T07:03:58;100157.32;;;4.04;81.17
51067;BME280;37112;45.892;-123.962;2023-02-26T07:06:12;100154.35;;;4.04;81.40
51067;BME280;37112;45.892;-123.962;2023-02-26T07:08:46;100149.30;;;4.03;81.43
51067;BME280;37112;45.892;-123.962;2023-02-26T07:10:59;100145.84;;;4.02;81.78
51067;BME280;37112;45.892;-123.962;2023-02-26T07:13:13;100146.23;;;4.02;81.85
51067;BME280;37112;45.892;-123.962;2023-02-26T07:15:26;100129.95;;;4.00;82.20
51067;BME280;37112;45.892;-123.962;2023-02-26T07:17:41;100136.00;;;3.99;81.89
51067;BME280;37112;45.892;-123.962;2023-02-26T07:19:54;100130.55;;;3.99;82.36
51067;BME280;37112;45.892;-123.962;2023-02-26T07:22:07;100120.21;;;3.99;81.98
51067;BME280;37112;45.892;-123.962;2023-02-26T07:24:22;100118.46;;;3.98;82.60
51067;BME280;37112;45.892;-123.962;2023-02-26T07:26:36;100108.44;;;3.99;82.84
51067;BME280;37112;45.892;-123.962;2023-02-26T07:28:50;100104.61;;;3.98;83.03
51067;BME280;37112;45.892;-123.962;2023-02-26T07:31:04;100111.11;;;3.98;83.35
51067;BME280;37112;45.892;-123.962;2023-02-26T07:33:18;100096.70;;;3.98;83.23
51067;BME280;37112;45.892;-123.962;2023-02-26T07:35:32;100091.95;;;3.98;83.68
51067;BME280;37112;45.892;-123.962;2023-02-26T07:37:45;100085.16;;;3.97;83.53
51067;BME280;37112;45.892;-123.962;2023-02-26T07:40:00;100078.98;;;3.98;83.36
51067;BME280;37112;45.892;-123.962;2023-02-26T07:42:14;100074.75;;;3.98;84.11
51067;BME280;37112;45.892;-123.962;2023-02-26T07:44:27;100068.20;;;3.99;84.57
51067;BME280;37112;45.892;-123.962;2023-02-26T07:46:41;100058.66;;;4.00;84.32
51067;BME280;37112;45.892;-123.962;2023-02-26T07:48:54;100054.58;;;4.01;84.23
51067;BME280;37112;45.892;-123.962;2023-02-26T07:51:08;100053.02;;;4.00;85.35
51067;BME280;37112;45.892;-123.962;2023-02-26T07:53:23;100049.86;;;4.00;85.11
51067;BME280;37112;45.892;-123.962;2023-02-26T07:55:36;100043.34;;;4.00;84.92
51067;BME280;37112;45.892;-123.962;2023-02-26T07:57:50;100032.36;;;4.02;84.94
51067;BME280;37112;45.892;-123.962;2023-02-26T08:00:04;100016.66;;;4.03;85.04
51067;BME280;37112;45.892;-123.962;2023-02-26T08:02:21;100012.73;;;4.04;85.21
51067;BME280;37112;45.892;-123.962;2023-02-26T08:04:34;100012.82;;;4.06;85.84
51067;BME280;37112;45.892;-123.962;2023-02-26T08:06:48;100001.55;;;4.10;86.32
51067;BME280;37112;45.892;-123.962;2023-02-26T08:09:04;99997.04;;;4.12;87.02
51067;BME280;37112;45.892;-123.962;2023-02-26T08:11:18;99986.67;;;4.16;86.79
51067;BME280;37112;45.892;-123.962;2023-02-26T08:13:32;99982.05;;;4.20;87.34
51067;BME280;37112;45.892;-123.962;2023-02-26T08:15:46;99970.46;;;4.24;87.02
51067;BME280;37112;45.892;-123.962;2023-02-26T08:18:00;99961.85;;;4.27;87.93
51067;BME280;37112;45.892;-123.962;2023-02-26T08:20:15;99959.41;;;4.30;87.28
51067;BME280;37112;45.892;-123.962;2023-02-26T08:22:28;99953.58;;;4.33;87.53
51067;BME280;37112;45.892;-123.962;2023-02-26T08:24:42;99942.36;;;4.36;87.85
51067;BME280;37112;45.892;-123.962;2023-02-26T08:26:56;99943.45;;;4.39;88.10
51067;BME280;37112;45.892;-123.962;2023-02-26T08:29:10;99934.84;;;4.41;88.62
51067;BME280;37112;45.892;-123.962;2023-02-26T08:31:23;99937.32;;;4.45;89.01
51067;BME280;37112;45.892;-123.962;2023-02-26T08:33:38;99928.10;;;4.49;88.59
51067;BME280;37112;45.892;-123.962;2023-02-26T08:35:52;99915.94;;;4.53;88.99
51067;BME280;37112;45.892;-123.962;2023-02-26T08:38:08;99913.55;;;4.58;89.46
51067;BME280;37112;45.892;-123.962;2023-02-26T08:40:22;99909.75;;;4.63;90.04
51067;BME280;37112;45.892;-123.962;2023-02-26T08:42:37;99902.42;;;4.68;90.19
51067;BME280;37112;45.892;-123.962;2023-02-26T08:44:50;99903.91;;;4.73;90.34
51067;BME280;37112;45.892;-123.962;2023-02-26T08:47:04;99891.40;;;4.77;90.83
51067;BME280;37112;45.892;-123.962;2023-02-26T08:49:17;99888.66;;;4.82;90.34
51067;BME280;37112;45.892;-123.962;2023-02-26T08:51:31;99888.27;;;4.85;90.50
51067;BME280;37112;45.892;-123.962;2023-02-26T08:53:45;99875.90;;;4.89;90.74
51067;BME280;37112;45.892;-123.962;2023-02-26T08:56:00;99876.60;;;4.93;91.18
51067;BME280;37112;45.892;-123.962;2023-02-26T08:58:14;99881.31;;;4.96;91.07
51067;BME280;37112;45.892;-123.962;2023-02-26T09:00:28;99866.16;;;4.99;91.59
51067;BME280;37112;45.892;-123.962;2023-02-26T09:02:42;99877.00;;;5.03;91.65
51067;BME280;37112;45.892;-123.962;2023-02-26T09:04:57;99859.50;;;5.08;92.21
51067;BME280;37112;45.892;-123.962;2023-02-26T09:07:10;99863.60;;;5.13;92.28
51067;BME280;37112;45.892;-123.962;2023-02-26T09:09:25;99835.61;;;5.16;92.09
51067;BME280;37112;45.892;-123.962;2023-02-26T09:11:38;99831.69;;;5.20;92.72
51067;BME280;37112;45.892;-123.962;2023-02-26T09:13:52;99830.42;;;5.24;92.78
51067;BME280;37112;45.892;-123.962;2023-02-26T09:16:06;99833.00;;;5.27;92.92
51067;BME280;37112;45.892;-123.962;2023-02-26T09:18:20;99825.11;;;5.30;92.87
51067;BME280;37112;45.892;-123.962;2023-02-26T09:20:34;99818.61;;;5.33;93.03
51067;BME280;37112;45.892;-123.962;2023-02-26T09:22:47;99813.45;;;5.37;93.58
51067;BME280;37112;45.892;-123.962;2023-02-26T09:25:01;99810.61;;;5.40;93.46
51067;BME280;37112;45.892;-123.962;2023-02-26T09:27:15;99806.34;;;5.44;93.35
51067;BME280;37112;45.892;-123.962;2023-02-26T09:29:29;99804.23;;;5.47;93.98
51067;BME280;37112;45.892;-123.962;2023-02-26T09:31:43;99800.45;;;5.51;93.84
51067;BME280;37112;45.892;-123.962;2023-02-26T09:33:56;99806.05;;;5.54;93.35
51067;BME280;37112;45.892;-123.962;2023-02-26T09:36:10;99826.70;;;5.59;95.63
51067;BME280;37112;45.892;-123.962;2023-02-26T09:38:23;99854.10;;;5.72;99.30
51067;BME280;37112;45.892;-123.962;2023-02-26T09:40:45;99891.60;;;5.83;99.51
51067;BME280;37112;45.892;-123.962;2023-02-26T09:43:24;99904.20;;;5.91;99.68
51067;BME280;37112;45.892;-123.962;2023-02-26T09:45:41;99909.14;;;5.97;99.54
51067;BME280;37112;45.892;-123.962;2023-02-26T09:47:55;99907.42;;;5.99;98.87
51067;BME280;37112;45.892;-123.962;2023-02-26T09:50:15;99900.51;;;6.00;98.45
51067;BME280;37112;45.892;-123.962;2023-02-26T09:52:35;99901.41;;;5.99;97.73
51067;BME280;37112;45.892;-123.962;2023-02-26T09:54:51;99906.70;;;5.99;97.23
51067;BME280;37112;45.892;-123.962;2023-02-26T09:57:08;99907.59;;;5.99;97.20
51067;BME280;37112;45.892;-123.962;2023-02-26T09:59:24;99907.58;;;5.97;96.60
51067;BME280;37112;45.892;-123.962;2023-02-26T10:01:43;99910.96;;;5.93;96.00
51067;BME280;37112;45.892;-123.962;2023-02-26T10:04:05;99919.98;;;5.89;95.63
51067;BME280;37112;45.892;-123.962;2023-02-26T10:06:24;99919.56;;;5.84;95.55
51067;BME280;37112;45.892;-123.962;2023-02-26T10:08:43;99921.42;;;5.80;95.32
51067;BME280;37112;45.892;-123.962;2023-02-26T10:11:04;99922.72;;;5.76;95.33
51067;BME280;37112;45.892;-123.962;2023-02-26T10:13:24;99924.05;;;5.71;94.80
51067;BME280;37112;45.892;-123.962;2023-02-26T10:15:44;99919.11;;;5.66;94.13
51067;BME280;37112;45.892;-123.962;2023-02-26T10:18:07;99922.12;;;5.63;94.27
51067;BME280;37112;45.892;-123.962;2023-02-26T10:20:24;99918.70;;;5.61;94.80
51067;BME280;37112;45.892;-123.962;2023-02-26T10:22:54;99922.84;;;5.63;94.88
51067;BME280;37112;45.892;-123.962;2023-02-26T10:25:14;99922.61;;;5.60;94.51
51067;BME280;37112;45.892;-123.962;2023-02-26T10:27:39;99923.41;;;5.55;94.15
51067;BME280;37112;45.892;-123.962;2023-02-26T10:29:59;99926.98;;;5.55;94.49
51067;BME280;37112;45.892;-123.962;2023-02-26T10:32:22;99926.91;;;5.59;95.39
51067;BME280;37112;45.892;-123.962;2023-02-26T10:34:43;99934.94;;;5.60;95.29
51067;BME280;37112;45.892;-123.962;2023-02-26T10:37:02;99935.65;;;5.54;94.40
51067;BME280;37112;45.892;-123.962;2023-02-26T10:39:28;99932.21;;;5.49;94.49
51067;BME280;37112;45.892;-123.962;2023-02-26T10:41:43;99934.84;;;5.50;94.84
51067;BME280;37112;45.892;-123.962;2023-02-26T10:44:07;99935.25;;;5.52;95.03
51067;BME280;37112;45.892;-123.962;2023-02-26T10:46:28;99940.00;;;5.55;95.09
51067;BME280;37112;45.892;-123.962;2023-02-26T10:49:03;99943.16;;;5.52;94.46
51067;BME280;37112;45.892;-123.962;2023-02-26T10:51:22;99941.98;;;5.48;94.47
51067;BME280;37112;45.892;-123.962;2023-02-26T10:53:36;99941.46;;;5.45;94.43
51067;BME280;37112;45.892;-123.962;2023-02-26T10:55:51;99939.92;;;5.44;94.46
51067;BME280;37112;45.892;-123.962;2023-02-26T10:58:13;99936.67;;;5.46;94.95
51067;BME280;37112;45.892;-123.962;2023-02-26T11:00:28;99935.72;;;5.47;95.24
51067;BME280;37112;45.892;-123.962;2023-02-26T11:02:43;99932.98;;;5.48;95.44
51067;BME280;37112;45.892;-123.962;2023-02-26T11:04:58;99932.25;;;5.49;95.17
51067;BME280;37112;45.892;-123.962;2023-02-26T11:07:16;99925.80;;;5.51;95.25
51067;BME280;37112;45.892;-123.962;2023-02-26T11:09:35;99929.55;;;5.53;95.38
51067;BME280;37112;45.892;-123.962;2023-02-26T11:11:53;99936.22;;;5.56;96.18
51067;BME280;37112;45.892;-123.962;2023-02-26T11:14:10;99932.17;;;5.59;96.29
51067;BME280;37112;45.892;-123.962;2023-02-26T11:16:24;99930.84;;;5.58;95.57
51067;BME280;37112;45.892;-123.962;2023-02-26T11:18:43;99933.63;;;5.55;95.75
51067;BME280;37112;45.892;-123.962;2023-02-26T11:20:58;99948.52;;;5.54;95.88
51067;BME280;37112;45.892;-123.962;2023-02-26T11:23:15;99947.03;;;5.49;95.44
51067;BME280;37112;45.892;-123.962;2023-02-26T11:25:31;99940.48;;;5.47;95.54
51067;BME280;37112;45.892;-123.962;2023-02-26T11:27:47;99939.13;;;5.46;95.57
51067;BME280;37112;45.892;-123.962;2023-02-26T11:30:06;99947.11;;;5.45;95.47
51067;BME280;37112;45.892;-123.962;2023-02-26T11:32:29;99946.61;;;5.47;95.89
51067;BME280;37112;45.892;-123.962;2023-02-26T11:34:49;99944.73;;;5.50;95.80
51067;BME280;37112;45.892;-123.962;2023-02-26T11:37:03;99952.91;;;5.48;95.60
51067;BME280;37112;45.892;-123.962;2023-02-26T11:39:20;99960.17;;;5.47;94.89
51067;BME280;37112;45.892;-123.962;2023-02-26T11:41:37;99965.06;;;5.45;94.86
51067;BME280;37112;45.892;-123.962;2023-02-26T11:44:00;99965.06;;;5.45;94.31